sensor_id;sensor_type;location;lat;lon;timestamp;P1;durP1;ratioP1;P2;durP2;ratioP2
73170;SDS011;61381;50.118;19.962;2023-03-01T00:00:20;41.95;;;16.88;;
73170;SDS011;61381;50.118;19.962;2023-03-01T00:05:43;29.88;;;11.25;;
73170;SDS011;61381;50.118;19.962;2023-03-01T00:10:46;37.45;;;16.50;;
73170;SDS011;61381;50.118;19.962;2023-03-01T00:15:47;40.13;;;15.38;;
73170;SDS011;61381;50.118;19.962;2023-03-01T00:20:49;32.58;;;13.63;;
73170;SDS011;61381;50.118;19.962;2023-03-01T00:25:52;26.35;;;11.68;;
73170;SDS011;61381;50.118;19.962;2023-03-01T00:30:53;47.95;;;19.27;;
73170;SDS011;61381;50.118;19.962;2023-03-01T00:35:57;33.53;;;13.50;;
73170;SDS011;61381;50.118;19.962;2023-03-01T00:41:03;47.17;;;18.92;;
73170;SDS011;61381;50.118;19.962;2023-03-01T00:46:07;45.08;;;17.73;;
73170;SDS011;61381;50.118;19.962;2023-03-01T00:51:10;38.60;;;16.70;;
73170;SDS011;61381;50.118;19.962;2023-03-01T00:56:14;42.92;;;17.23;;
73170;SDS011;61381;50.118;19.962;2023-03-01T01:01:16;34.25;;;15.23;;
73170;SDS011;61381;50.118;19.962;2023-03-01T01:06:19;43.13;;;16.50;;
73170;SDS011;61381;50.118;19.962;2023-03-01T01:11:24;40.03;;;16.25;;
73170;SDS011;61381;50.118;19.962;2023-03-01T01:16:28;31.73;;;14.60;;
73170;SDS011;61381;50.118;19.962;2023-03-01T01:21:29;38.33;;;16.58;;
73170;SDS011;61381;50.118;19.962;2023-03-01T01:26:32;38.33;;;14.13;;
73170;SDS011;61381;50.118;19.962;2023-03-01T01:31:36;37.35;;;17.05;;
73170;SDS011;61381;50.118;19.962;2023-03-01T01:36:38;42.05;;;17.33;;
73170;SDS011;61381;50.118;19.962;2023-03-01T01:41:41;49.65;;;19.45;;
73170;SDS011;61381;50.118;19.962;2023-03-01T01:46:42;35.88;;;14.95;;
73170;SDS011;61381;50.118;19.962;2023-03-01T01:51:47;79.35;;;29.98;;
73170;SDS011;61381;50.118;19.962;2023-03-01T01:56:54;49.60;;;22.05;;
73170;SDS011;61381;50.118;19.962;2023-03-01T02:01:58;55.40;;;25.55;;
73170;SDS011;61381;50.118;19.962;2023-03-01T02:07:01;60.85;;;24.45;;
73170;SDS011;61381;50.118;19.962;2023-03-01T02:12:07;53.55;;;23.00;;
73170;SDS011;61381;50.118;19.962;2023-03-01T02:17:08;42.63;;;18.02;;
73170;SDS011;61381;50.118;19.962;2023-03-01T02:22:13;38.58;;;18.40;;
73170;SDS011;61381;50.118;19.962;2023-03-01T02:27:22;47.35;;;18.35;;
73170;SDS011;61381;50.118;19.962;2023-03-01T02:32:29;46.00;;;17.88;;
73170;SDS011;61381;50.118;19.962;2023-03-01T02:37:30;87.53;;;33.33;;
73170;SDS011;61381;50.118;19.962;2023-03-01T02:42:32;49.75;;;18.63;;
73170;SDS011;61381;50.118;19.962;2023-03-01T02:47:42;39.65;;;16.77;;
73170;SDS011;61381;50.118;19.962;2023-03-01T02:52:44;39.08;;;17.67;;
73170;SDS011;61381;50.118;19.962;2023-03-01T02:57:47;37.97;;;14.77;;
73170;SDS011;61381;50.118;19.962;2023-03-01T03:02:52;34.47;;;13.20;;
73170;SDS011;61381;50.118;19.962;2023-03-01T03:07:54;37.55;;;16.77;;
73170;SDS011;61381;50.118;19.962;2023-03-01T03:12:57;60.97;;;25.92;;
73170;SDS011;61381;50.118;19.962;2023-03-01T03:18:00;53.60;;;22.88;;
73170;SDS011;61381;50.118;19.962;2023-03-01T03:23:02;59.78;;;23.00;;
73170;SDS011;61381;50.118;19.962;2023-03-01T03:28:04;58.67;;;25.83;;
73170;SDS011;61381;50.118;19.962;2023-03-01T03:33:08;51.70;;;22.08;;
73170;SDS011;61381;50.118;19.962;2023-03-01T03:38:10;45.28;;;18.90;;
73170;SDS011;61381;50.118;19.962;2023-03-01T03:43:14;48.30;;;21.05;;
73170;SDS011;61381;50.118;19.962;2023-03-01T03:48:18;71.82;;;27.38;;
73170;SDS011;61381;50.118;19.962;2023-03-01T03:53:20;40.22;;;18.88;;
73170;SDS011;61381;50.118;19.962;2023-03-01T04:03:25;40.97;;;18.23;;
73170;SDS011;61381;50.118;19.962;2023-03-01T04:08:27;44.85;;;18.10;;
73170;SDS011;61381;50.118;19.962;2023-03-01T04:13:29;54.00;;;19.02;;
73170;SDS011;61381;50.118;19.962;2023-03-01T04:18:31;45.97;;;19.08;;
73170;SDS011;61381;50.118;19.962;2023-03-01T04:23:32;36.28;;;16.52;;
73170;SDS011;61381;50.118;19.962;2023-03-01T04:28:34;58.10;;;19.10;;
73170;SDS011;61381;50.118;19.962;2023-03-01T04:33:41;44.72;;;19.42;;
73170;SDS011;61381;50.118;19.962;2023-03-01T04:38:43;42.40;;;18.73;;
73170;SDS011;61381;50.118;19.962;2023-03-01T04:43:44;38.92;;;18.17;;
73170;SDS011;61381;50.118;19.962;2023-03-01T04:48:47;47.20;;;20.02;;
73170;SDS011;61381;50.118;19.962;2023-03-01T04:53:49;50.90;;;21.38;;
73170;SDS011;61381;50.118;19.962;2023-03-01T04:58:52;52.80;;;21.50;;
73170;SDS011;61381;50.118;19.962;2023-03-01T05:03:55;76.55;;;29.98;;
73170;SDS011;61381;50.118;19.962;2023-03-01T05:08:56;47.50;;;19.98;;
73170;SDS011;61381;50.118;19.962;2023-03-01T05:13:58;58.22;;;24.58;;
73170;SDS011;61381;50.118;19.962;2023-03-01T05:19:00;73.75;;;29.30;;
73170;SDS011;61381;50.118;19.962;2023-03-01T05:24:01;77.57;;;31.58;;
73170;SDS011;61381;50.118;19.962;2023-03-01T05:29:03;62.08;;;26.98;;
73170;SDS011;61381;50.118;19.962;2023-03-01T05:34:05;73.80;;;29.20;;
73170;SDS011;61381;50.118;19.962;2023-03-01T05:39:06;59.00;;;24.70;;
73170;SDS011;61381;50.118;19.962;2023-03-01T05:44:08;61.60;;;26.95;;
73170;SDS011;61381;50.118;19.962;2023-03-01T05:49:10;94.40;;;35.15;;
73170;SDS011;61381;50.118;19.962;2023-03-01T05:54:11;54.63;;;24.52;;
73170;SDS011;61381;50.118;19.962;2023-03-01T05:59:12;50.13;;;21.17;;
73170;SDS011;61381;50.118;19.962;2023-03-01T06:04:15;43.40;;;17.10;;
73170;SDS011;61381;50.118;19.962;2023-03-01T06:09:16;58.90;;;26.58;;
73170;SDS011;61381;50.118;19.962;2023-03-01T06:14:17;60.10;;;23.90;;
73170;SDS011;61381;50.118;19.962;2023-03-01T06:19:20;37.28;;;17.00;;
73170;SDS011;61381;50.118;19.962;2023-03-01T06:24:21;36.55;;;17.02;;
73170;SDS011;61381;50.118;19.962;2023-03-01T06:29:22;48.33;;;20.15;;
73170;SDS011;61381;50.118;19.962;2023-03-01T06:34:25;50.00;;;21.40;;
73170;SDS011;61381;50.118;19.962;2023-03-01T06:39:27;47.67;;;20.30;;
73170;SDS011;61381;50.118;19.962;2023-03-01T06:44:28;45.13;;;19.17;;
73170;SDS011;61381;50.118;19.962;2023-03-01T06:49:31;50.35;;;21.83;;
73170;SDS011;61381;50.118;19.962;2023-03-01T06:54:32;54.20;;;23.98;;
73170;SDS011;61381;50.118;19.962;2023-03-01T06:59:33;66.03;;;27.15;;
73170;SDS011;61381;50.118;19.962;2023-03-01T07:04:36;61.35;;;26.48;;
73170;SDS011;61381;50.118;19.962;2023-03-01T07:09:37;56.78;;;23.80;;
73170;SDS011;61381;50.118;19.962;2023-03-01T07:14:38;50.10;;;20.10;;
73170;SDS011;61381;50.118;19.962;2023-03-01T07:19:41;54.78;;;20.60;;
73170;SDS011;61381;50.118;19.962;2023-03-01T07:24:42;37.30;;;15.95;;
73170;SDS011;61381;50.118;19.962;2023-03-01T07:34:46;27.33;;;11.85;;
73170;SDS011;61381;50.118;19.962;2023-03-01T07:39:47;33.00;;;13.35;;
73170;SDS011;61381;50.118;19.962;2023-03-01T07:44:48;29.15;;;12.82;;
73170;SDS011;61381;50.118;19.962;2023-03-01T07:49:50;36.22;;;15.02;;
73170;SDS011;61381;50.118;19.962;2023-03-01T07:54:51;34.40;;;14.85;;
73170;SDS011;61381;50.118;19.962;2023-03-01T07:59:53;36.65;;;14.90;;
73170;SDS011;61381;50.118;19.962;2023-03-01T08:04:55;26.35;;;11.55;;
73170;SDS011;61381;50.118;19.962;2023-03-01T08:09:56;32.65;;;13.05;;
73170;SDS011;61381;50.118;19.962;2023-03-01T08:14:57;37.15;;;14.50;;
73170;SDS011;61381;50.118;19.962;2023-03-01T08:20:00;29.85;;;12.85;;
73170;SDS011;61381;50.118;19.962;2023-03-01T08:25:01;29.42;;;12.10;;
73170;SDS011;61381;50.118;19.962;2023-03-01T08:30:02;27.50;;;11.23;;
73170;SDS011;61381;50.118;19.962;2023-03-01T08:35:06;33.88;;;11.27;;
73170;SDS011;61381;50.118;19.962;2023-03-01T08:40:08;29.60;;;11.60;;
73170;SDS011;61381;50.118;19.962;2023-03-01T08:45:10;21.98;;;8.65;;
73170;SDS011;61381;50.118;19.962;2023-03-01T08:50:13;14.70;;;5.25;;
73170;SDS011;61381;50.118;19.962;2023-03-01T08:55:15;14.98;;;6.28;;
73170;SDS011;61381;50.118;19.962;2023-03-01T09:00:16;17.80;;;7.15;;
73170;SDS011;61381;50.118;19.962;2023-03-01T09:05:19;22.05;;;9.88;;
73170;SDS011;61381;50.118;19.962;2023-03-01T09:10:20;22.20;;;9.50;;
73170;SDS011;61381;50.118;19.962;2023-03-01T09:15:21;22.95;;;10.35;;
73170;SDS011;61381;50.118;19.962;2023-03-01T09:20:24;22.67;;;10.20;;
73170;SDS011;61381;50.118;19.962;2023-03-01T09:25:25;21.65;;;9.45;;
73170;SDS011;61381;50.118;19.962;2023-03-01T09:30:26;24.02;;;10.35;;
73170;SDS011;61381;50.118;19.962;2023-03-01T09:40:29;17.45;;;7.60;;
73170;SDS011;61381;50.118;19.962;2023-03-01T09:45:32;24.67;;;9.50;;
73170;SDS011;61381;50.118;19.962;2023-03-01T09:50:38;20.85;;;9.20;;
73170;SDS011;61381;50.118;19.962;2023-03-01T09:55:43;17.85;;;8.93;;
73170;SDS011;61381;50.118;19.962;2023-03-01T10:00:46;24.80;;;9.73;;
73170;SDS011;61381;50.118;19.962;2023-03-01T10:05:52;14.20;;;7.50;;
73170;SDS011;61381;50.118;19.962;2023-03-01T10:10:59;21.88;;;9.52;;
73170;SDS011;61381;50.118;19.962;2023-03-01T10:16:02;31.02;;;15.90;;
73170;SDS011;61381;50.118;19.962;2023-03-01T10:21:14;25.13;;;11.30;;
73170;SDS011;61381;50.118;19.962;2023-03-01T10:26:20;18.02;;;8.07;;
73170;SDS011;61381;50.118;19.962;2023-03-01T10:31:35;22.63;;;10.40;;
73170;SDS011;61381;50.118;19.962;2023-03-01T10:36:41;15.07;;;8.07;;
73170;SDS011;61381;50.118;19.962;2023-03-01T10:41:54;21.58;;;8.80;;
73170;SDS011;61381;50.118;19.962;2023-03-01T10:46:59;17.65;;;7.47;;
73170;SDS011;61381;50.118;19.962;2023-03-01T10:52:11;25.30;;;10.40;;
73170;SDS011;61381;50.118;19.962;2023-03-01T10:57:24;24.23;;;10.55;;
73170;SDS011;61381;50.118;19.962;2023-03-01T11:02:30;28.25;;;11.77;;
73170;SDS011;61381;50.118;19.962;2023-03-01T11:07:33;29.45;;;13.27;;
73170;SDS011;61381;50.118;19.962;2023-03-01T11:12:48;25.73;;;10.48;;
73170;SDS011;61381;50.118;19.962;2023-03-01T11:22:52;30.30;;;12.18;;
73170;SDS011;61381;50.118;19.962;2023-03-01T11:27:54;25.50;;;13.00;;
73170;SDS011;61381;50.118;19.962;2023-03-01T11:33:06;29.60;;;11.27;;
73170;SDS011;61381;50.118;19.962;2023-03-01T11:38:21;25.05;;;9.85;;
73170;SDS011;61381;50.118;19.962;2023-03-01T11:43:26;24.25;;;11.25;;
73170;SDS011;61381;50.118;19.962;2023-03-01T11:54:09;23.25;;;8.68;;
73170;SDS011;61381;50.118;19.962;2023-03-01T11:59:32;22.80;;;9.88;;
73170;SDS011;61381;50.118;19.962;2023-03-01T12:05:01;27.38;;;13.43;;
73170;SDS011;61381;50.118;19.962;2023-03-01T12:10:25;20.83;;;9.65;;
73170;SDS011;61381;50.118;19.962;2023-03-01T12:20:58;21.67;;;9.43;;
73170;SDS011;61381;50.118;19.962;2023-03-01T12:26:13;18.48;;;8.23;;
73170;SDS011;61381;50.118;19.962;2023-03-01T12:31:37;20.80;;;10.73;;
73170;SDS011;61381;50.118;19.962;2023-03-01T12:37:09;21.60;;;11.00;;
73170;SDS011;61381;50.118;19.962;2023-03-01T12:42:24;18.65;;;8.38;;
73170;SDS011;61381;50.118;19.962;2023-03-01T12:47:39;19.60;;;8.00;;
73170;SDS011;61381;50.118;19.962;2023-03-01T12:52:52;20.38;;;9.63;;
73170;SDS011;61381;50.118;19.962;2023-03-01T12:58:02;24.23;;;12.25;;
73170;SDS011;61381;50.118;19.962;2023-03-01T13:03:13;15.82;;;7.65;;
73170;SDS011;61381;50.118;19.962;2023-03-01T13:08:22;17.95;;;7.97;;
73170;SDS011;61381;50.118;19.962;2023-03-01T13:13:31;16.75;;;7.88;;
73170;SDS011;61381;50.118;19.962;2023-03-01T13:18:32;21.75;;;9.15;;
73170;SDS011;61381;50.118;19.962;2023-03-01T13:23:35;21.10;;;9.48;;
73170;SDS011;61381;50.118;19.962;2023-03-01T13:28:41;22.70;;;9.20;;
73170;SDS011;61381;50.118;19.962;2023-03-01T13:34:00;27.80;;;12.10;;
73170;SDS011;61381;50.118;19.962;2023-03-01T13:39:02;21.13;;;10.75;;
73170;SDS011;61381;50.118;19.962;2023-03-01T13:44:13;23.23;;;10.23;;
73170;SDS011;61381;50.118;19.962;2023-03-01T13:49:25;20.38;;;9.52;;
73170;SDS011;61381;50.118;19.962;2023-03-01T13:54:30;18.67;;;9.00;;
73170;SDS011;61381;50.118;19.962;2023-03-01T13:59:34;24.55;;;9.50;;
73170;SDS011;61381;50.118;19.962;2023-03-01T14:04:55;18.52;;;8.23;;
73170;SDS011;61381;50.118;19.962;2023-03-01T14:09:58;19.90;;;9.15;;
73170;SDS011;61381;50.118;19.962;2023-03-01T14:15:04;19.25;;;7.50;;
73170;SDS011;61381;50.118;19.962;2023-03-01T14:20:17;18.45;;;7.32;;
73170;SDS011;61381;50.118;19.962;2023-03-01T14:25:21;11.75;;;5.80;;
73170;SDS011;61381;50.118;19.962;2023-03-01T14:30:26;16.65;;;7.45;;
73170;SDS011;61381;50.118;19.962;2023-03-01T14:35:32;13.27;;;7.20;;
73170;SDS011;61381;50.118;19.962;2023-03-01T14:40:36;15.82;;;7.82;;
73170;SDS011;61381;50.118;19.962;2023-03-01T14:45:39;17.58;;;8.52;;
73170;SDS011;61381;50.118;19.962;2023-03-01T14:50:40;21.25;;;8.85;;
73170;SDS011;61381;50.118;19.962;2023-03-01T14:55:44;20.08;;;8.90;;
73170;SDS011;61381;50.118;19.962;2023-03-01T15:00:50;18.15;;;7.90;;
73170;SDS011;61381;50.118;19.962;2023-03-01T15:05:53;17.52;;;8.63;;
73170;SDS011;61381;50.118;19.962;2023-03-01T15:10:55;16.63;;;7.22;;
73170;SDS011;61381;50.118;19.962;2023-03-01T15:16:04;20.30;;;7.50;;
73170;SDS011;61381;50.118;19.962;2023-03-01T15:21:09;16.70;;;6.15;;
73170;SDS011;61381;50.118;19.962;2023-03-01T15:26:21;16.67;;;7.22;;
73170;SDS011;61381;50.118;19.962;2023-03-01T15:31:26;15.45;;;6.05;;
73170;SDS011;61381;50.118;19.962;2023-03-01T15:36:30;15.32;;;7.13;;
73170;SDS011;61381;50.118;19.962;2023-03-01T15:41:37;17.42;;;8.10;;
73170;SDS011;61381;50.118;19.962;2023-03-01T15:46:49;16.73;;;7.47;;
73170;SDS011;61381;50.118;19.962;2023-03-01T15:51:51;16.60;;;7.68;;
73170;SDS011;61381;50.118;19.962;2023-03-01T15:56:55;15.23;;;7.07;;
73170;SDS011;61381;50.118;19.962;2023-03-01T16:01:58;15.30;;;6.70;;
73170;SDS011;61381;50.118;19.962;2023-03-01T16:06:59;16.27;;;6.72;;
73170;SDS011;61381;50.118;19.962;2023-03-01T16:17:02;15.55;;;5.80;;
73170;SDS011;61381;50.118;19.962;2023-03-01T16:22:03;15.95;;;5.72;;
73170;SDS011;61381;50.118;19.962;2023-03-01T16:27:05;15.75;;;6.00;;
73170;SDS011;61381;50.118;19.962;2023-03-01T16:32:07;18.33;;;7.65;;
73170;SDS011;61381;50.118;19.962;2023-03-01T16:37:09;18.08;;;8.63;;
73170;SDS011;61381;50.118;19.962;2023-03-01T16:42:10;35.92;;;11.35;;
73170;SDS011;61381;50.118;19.962;2023-03-01T16:47:12;20.33;;;8.57;;
73170;SDS011;61381;50.118;19.962;2023-03-01T16:52:13;26.67;;;10.25;;
73170;SDS011;61381;50.118;19.962;2023-03-01T17:02:17;26.55;;;10.80;;
73170;SDS011;61381;50.118;19.962;2023-03-01T17:07:18;40.13;;;14.27;;
73170;SDS011;61381;50.118;19.962;2023-03-01T17:12:19;175.70;;;62.47;;
73170;SDS011;61381;50.118;19.962;2023-03-01T17:17:22;63.08;;;22.30;;
73170;SDS011;61381;50.118;19.962;2023-03-01T17:22:23;113.22;;;40.95;;
73170;SDS011;61381;50.118;19.962;2023-03-01T17:27:24;48.00;;;18.00;;
73170;SDS011;61381;50.118;19.962;2023-03-01T17:32:27;41.42;;;17.42;;
73170;SDS011;61381;50.118;19.962;2023-03-01T17:37:28;45.58;;;18.67;;
73170;SDS011;61381;50.118;19.962;2023-03-01T17:42:30;60.03;;;22.58;;
73170;SDS011;61381;50.118;19.962;2023-03-01T17:47:32;63.17;;;24.02;;
73170;SDS011;61381;50.118;19.962;2023-03-01T17:52:34;48.03;;;18.83;;
73170;SDS011;61381;50.118;19.962;2023-03-01T17:57:37;65.78;;;24.23;;
73170;SDS011;61381;50.118;19.962;2023-03-01T18:02:39;44.30;;;18.67;;
73170;SDS011;61381;50.118;19.962;2023-03-01T18:07:41;40.20;;;16.83;;
73170;SDS011;61381;50.118;19.962;2023-03-01T18:12:42;43.20;;;17.00;;
73170;SDS011;61381;50.118;19.962;2023-03-01T18:17:44;53.65;;;20.40;;
73170;SDS011;61381;50.118;19.962;2023-03-01T18:22:45;57.97;;;20.65;;
73170;SDS011;61381;50.118;19.962;2023-03-01T18:27:47;51.92;;;19.83;;
73170;SDS011;61381;50.118;19.962;2023-03-01T18:32:49;62.25;;;24.50;;
73170;SDS011;61381;50.118;19.962;2023-03-01T18:37:50;58.08;;;21.08;;
73170;SDS011;61381;50.118;19.962;2023-03-01T18:42:51;52.00;;;22.00;;
73170;SDS011;61381;50.118;19.962;2023-03-01T18:47:54;46.22;;;19.77;;
73170;SDS011;61381;50.118;19.962;2023-03-01T18:52:56;46.50;;;18.35;;
73170;SDS011;61381;50.118;19.962;2023-03-01T18:57:58;56.80;;;22.77;;
73170;SDS011;61381;50.118;19.962;2023-03-01T19:03:01;40.97;;;16.55;;
73170;SDS011;61381;50.118;19.962;2023-03-01T19:08:03;47.08;;;20.05;;
73170;SDS011;61381;50.118;19.962;2023-03-01T19:13:05;39.75;;;16.45;;
73170;SDS011;61381;50.118;19.962;2023-03-01T19:18:07;46.58;;;18.63;;
73170;SDS011;61381;50.118;19.962;2023-03-01T19:23:08;36.92;;;15.18;;
73170;SDS011;61381;50.118;19.962;2023-03-01T19:28:10;45.67;;;17.67;;
73170;SDS011;61381;50.118;19.962;2023-03-01T19:33:12;50.78;;;21.23;;
73170;SDS011;61381;50.118;19.962;2023-03-01T19:38:13;49.38;;;21.08;;
73170;SDS011;61381;50.118;19.962;2023-03-01T19:43:14;47.72;;;19.60;;
73170;SDS011;61381;50.118;19.962;2023-03-01T19:48:17;45.58;;;19.13;;
73170;SDS011;61381;50.118;19.962;2023-03-01T19:53:18;40.20;;;15.98;;
73170;SDS011;61381;50.118;19.962;2023-03-01T19:58:20;66.55;;;27.33;;
73170;SDS011;61381;50.118;19.962;2023-03-01T20:03:23;72.03;;;29.40;;
73170;SDS011;61381;50.118;19.962;2023-03-01T20:08:24;57.78;;;25.73;;
73170;SDS011;61381;50.118;19.962;2023-03-01T20:13:26;61.80;;;28.00;;
73170;SDS011;61381;50.118;19.962;2023-03-01T20:18:28;81.30;;;32.75;;
73170;SDS011;61381;50.118;19.962;2023-03-01T20:23:29;78.32;;;31.40;;
73170;SDS011;61381;50.118;19.962;2023-03-01T20:28:31;125.97;;;50.47;;
73170;SDS011;61381;50.118;19.962;2023-03-01T20:33:33;67.88;;;30.02;;
73170;SDS011;61381;50.118;19.962;2023-03-01T20:38:35;71.20;;;30.98;;
73170;SDS011;61381;50.118;19.962;2023-03-01T20:43:37;60.28;;;25.42;;
73170;SDS011;61381;50.118;19.962;2023-03-01T20:48:40;72.22;;;27.48;;
73170;SDS011;61381;50.118;19.962;2023-03-01T20:53:42;52.40;;;21.15;;
73170;SDS011;61381;50.118;19.962;2023-03-01T20:58:43;74.15;;;31.40;;
73170;SDS011;61381;50.118;19.962;2023-03-01T21:03:45;72.78;;;30.75;;
73170;SDS011;61381;50.118;19.962;2023-03-01T21:08:47;80.78;;;35.28;;
73170;SDS011;61381;50.118;19.962;2023-03-01T21:13:48;85.15;;;39.63;;
73170;SDS011;61381;50.118;19.962;2023-03-01T21:18:50;73.97;;;30.50;;
73170;SDS011;61381;50.118;19.962;2023-03-01T21:23:52;58.95;;;25.52;;
73170;SDS011;61381;50.118;19.962;2023-03-01T21:28:55;69.55;;;27.38;;
73170;SDS011;61381;50.118;19.962;2023-03-01T21:34:00;60.30;;;24.40;;
73170;SDS011;61381;50.118;19.962;2023-03-01T21:39:03;66.10;;;27.63;;
73170;SDS011;61381;50.118;19.962;2023-03-01T21:44:06;59.53;;;25.20;;
73170;SDS011;61381;50.118;19.962;2023-03-01T21:49:09;75.32;;;27.15;;
73170;SDS011;61381;50.118;19.962;2023-03-01T21:54:11;65.20;;;24.98;;
73170;SDS011;61381;50.118;19.962;2023-03-01T21:59:14;66.82;;;27.58;;
73170;SDS011;61381;50.118;19.962;2023-03-01T22:04:18;65.88;;;24.25;;
73170;SDS011;61381;50.118;19.962;2023-03-01T22:09:20;60.58;;;23.30;;
73170;SDS011;61381;50.118;19.962;2023-03-01T22:14:23;61.97;;;24.75;;
73170;SDS011;61381;50.118;19.962;2023-03-01T22:19:25;67.88;;;27.42;;
73170;SDS011;61381;50.118;19.962;2023-03-01T22:24:26;144.02;;;43.50;;
73170;SDS011;61381;50.118;19.962;2023-03-01T22:29:28;48.22;;;21.42;;
73170;SDS011;61381;50.118;19.962;2023-03-01T22:34:30;71.70;;;27.98;;
73170;SDS011;61381;50.118;19.962;2023-03-01T22:39:32;54.22;;;19.95;;
73170;SDS011;61381;50.118;19.962;2023-03-01T22:44:33;58.50;;;21.48;;
73170;SDS011;61381;50.118;19.962;2023-03-01T22:49:36;42.95;;;18.42;;
73170;SDS011;61381;50.118;19.962;2023-03-01T22:54:38;54.63;;;21.85;;
73170;SDS011;61381;50.118;19.962;2023-03-01T22:59:42;44.10;;;17.80;;
73170;SDS011;61381;50.118;19.962;2023-03-01T23:04:48;43.92;;;16.77;;
73170;SDS011;61381;50.118;19.962;2023-03-01T23:09:51;44.50;;;17.02;;
73170;SDS011;61381;50.118;19.962;2023-03-01T23:14:54;47.05;;;19.45;;
73170;SDS011;61381;50.118;19.962;2023-03-01T23:19:56;41.58;;;17.02;;
73170;SDS011;61381;50.118;19.962;2023-03-01T23:24:57;42.20;;;17.40;;
73170;SDS011;61381;50.118;19.962;2023-03-01T23:29:58;56.67;;;21.73;;
73170;SDS011;61381;50.118;19.962;2023-03-01T23:35:01;61.10;;;24.95;;
73170;SDS011;61381;50.118;19.962;2023-03-01T23:40:02;76.45;;;27.95;;
73170;SDS011;61381;50.118;19.962;2023-03-01T23:45:05;75.82;;;32.47;;
73170;SDS011;61381;50.118;19.962;2023-03-01T23:50:09;78.03;;;31.38;;
73170;SDS011;61381;50.118;19.962;2023-03-01T23:55:10;85.88;;;36.80;;
